Time;durP1;ratioP1;P1;durP2;ratioP2;P2;SDS_P1;SDS_P2;PMS_P1;PMS_P2;Temp;Humidity;BMP_temperature;BMP_pressure;BME280_temperature;BME280_humidity;BME280_pressure;Samples;Min_cycle;Max_cycle;Signal;HPM_P1;HPM_P2
2022/04/24 00:02:22;;;;;;;11.73;7.32;;;;;;;9.57;62.83;97734.84;4996712;28;20042;-54
2022/04/24 00:04:47;;;;;;;10.60;6.88;;;;;;;9.52;63.31;97740.19;4998823;28;20018;-51
2022/04/24 00:07:13;;;;;;;9.55;6.15;;;;;;;9.60;62.32;97726.25;4987190;28;20492;-53
2022/04/24 00:09:38;;;;;;;10.43;6.55;;;;;;;9.56;62.60;97725.22;4989796;28;20026;-51
2022/04/24 00:12:06;;;;;;;11.05;7.20;;;;;;;9.53;62.70;97728.41;5000265;28;20051;-50
2022/04/24 00:14:31;;;;;;;14.77;7.43;;;;;;;9.38;63.80;97723.13;4996454;28;20030;-53
2022/04/24 00:16:57;;;;;;;12.68;7.40;;;;;;;9.28;64.93;97721.25;5004335;28;20722;-53
2022/04/24 00:19:23;;;;;;;10.88;6.30;;;;;;;9.22;64.05;97723.16;4992441;28;20556;-53
2022/04/24 00:21:48;;;;;;;12.43;7.15;;;;;;;9.20;64.32;97719.16;4992367;28;20038;-52
2022/04/24 00:24:14;;;;;;;10.10;6.35;;;;;;;9.15;64.39;97717.28;4995570;28;20499;-54
2022/04/24 00:26:39;;;;;;;9.30;6.50;;;;;;;9.15;64.08;97717.28;4988874;28;20046;-52
2022/04/24 00:29:05;;;;;;;8.52;6.20;;;;;;;9.20;64.23;97711.91;4992409;28;20449;-53
2022/04/24 00:31:30;;;;;;;9.82;6.43;;;;;;;9.19;63.93;97713.00;4995693;28;20061;-52
2022/04/24 00:33:55;;;;;;;8.93;6.00;;;;;;;9.27;63.48;97708.97;4975411;28;20365;-53
2022/04/24 00:36:21;;;;;;;10.10;6.68;;;;;;;9.27;63.51;97709.78;4994170;28;20145;-52
2022/04/24 00:38:46;;;;;;;10.82;6.15;;;;;;;9.27;63.33;97701.75;4999623;28;20117;-52
2022/04/24 00:41:12;;;;;;;9.07;6.00;;;;;;;9.21;63.49;97700.19;4992154;28;20349;-52
2022/04/24 00:43:37;;;;;;;9.20;6.40;;;;;;;9.15;63.75;97695.91;4992676;28;20038;-51
2022/04/24 00:46:39;;;;;;;14.60;6.15;;;;;;;9.11;64.04;97692.19;4988503;28;20050;-50
2022/04/24 00:49:05;;;;;;;9.18;5.80;;;;;;;9.06;63.88;97692.97;4988683;28;20050;-50
2022/04/24 00:51:30;;;;;;;9.02;6.50;;;;;;;9.04;64.23;97699.66;4998832;28;20045;-51
2022/04/24 00:53:56;;;;;;;10.65;6.22;;;;;;;9.00;64.25;97698.59;4993015;28;20088;-52
2022/04/24 00:56:22;;;;;;;10.38;6.13;;;;;;;8.96;64.45;97684.97;4988354;28;20042;-50
2022/04/24 00:58:48;;;;;;;10.00;6.03;;;;;;;9.02;64.22;97688.44;4990732;28;20500;-52
2022/04/24 01:01:13;;;;;;;7.13;5.15;;;;;;;8.97;64.53;97685.78;4980554;28;20063;-53
2022/04/24 01:03:39;;;;;;;9.10;6.03;;;;;;;8.97;64.18;97691.91;4986589;28;20034;-53
2022/04/24 01:06:04;;;;;;;9.35;5.97;;;;;;;8.95;64.11;97683.38;4992585;28;20073;-50
2022/04/24 01:08:30;;;;;;;9.13;5.65;;;;;;;8.90;64.60;97687.91;4990927;28;20034;-53
2022/04/24 01:10:55;;;;;;;10.07;6.32;;;;;;;8.84;64.80;97687.94;4996657;28;20042;-53
2022/04/24 01:13:20;;;;;;;9.48;5.72;;;;;;;8.88;64.60;97690.84;4993464;28;20042;-51
2022/04/24 01:15:46;;;;;;;9.88;5.82;;;;;;;8.91;64.49;97689.50;4992008;28;20048;-51
2022/04/24 01:18:11;;;;;;;11.80;6.45;;;;;;;8.95;65.53;97693.25;4990656;28;20401;-51
2022/04/24 01:20:37;;;;;;;10.00;5.90;;;;;;;8.98;64.18;97692.72;4995062;28;20065;-53
2022/04/24 01:23:02;;;;;;;10.02;5.90;;;;;;;9.02;64.33;97689.25;4993227;28;20551;-50
2022/04/24 01:25:27;;;;;;;8.98;6.40;;;;;;;9.04;64.07;97688.97;4995124;28;20201;-51
2022/04/24 01:27:53;;;;;;;9.15;5.65;;;;;;;9.03;64.20;97687.34;4996867;28;20026;-50
2022/04/24 01:30:18;;;;;;;9.27;5.80;;;;;;;8.92;65.87;97691.13;4988217;28;20034;-51
2022/04/24 01:32:44;;;;;;;8.63;6.20;;;;;;;8.83;66.90;97678.28;4993009;28;20026;-54
2022/04/24 01:35:11;;;;;;;9.10;6.10;;;;;;;8.75;67.73;97681.50;4988948;28;20453;-52
2022/04/24 01:37:36;;;;;;;9.90;6.70;;;;;;;8.69;69.14;97684.47;4997388;28;20031;-54
2022/04/24 01:40:02;;;;;;;11.13;6.20;;;;;;;8.56;68.61;97683.09;4989902;28;20022;-52
2022/04/24 01:42:27;;;;;;;9.90;6.63;;;;;;;8.48;68.58;97694.31;4987684;28;20045;-52
2022/04/24 01:44:53;;;;;;;9.55;6.07;;;;;;;8.45;69.46;97684.19;4986485;28;20029;-52
2022/04/24 01:47:18;;;;;;;8.90;6.28;;;;;;;8.55;68.26;97681.53;4987182;28;20096;-53
2022/04/24 01:49:43;;;;;;;15.98;6.60;;;;;;;8.58;68.67;97689.78;4988841;28;20030;-52
2022/04/24 01:52:09;;;;;;;9.50;6.28;;;;;;;8.70;67.86;97692.19;5001825;28;20152;-54
2022/04/24 01:54:35;;;;;;;7.95;5.97;;;;;;;8.74;67.57;97692.47;4994803;28;20053;-53
2022/04/24 01:57:00;;;;;;;9.18;5.97;;;;;;;8.74;67.44;97685.25;4991912;28;20042;-51
2022/04/24 01:59:25;;;;;;;7.97;6.05;;;;;;;8.70;67.94;97689.53;4987871;28;20026;-51
2022/04/24 02:01:51;;;;;;;10.20;6.68;;;;;;;8.67;68.41;97687.41;4990851;28;20175;-52
2022/04/24 02:04:19;;;;;;;10.10;6.50;;;;;;;8.60;69.78;97678.84;4992044;28;20405;-51
2022/04/24 02:06:44;;;;;;;11.00;7.20;;;;;;;8.57;71.02;97676.72;4985234;28;20031;-51
2022/04/24 02:09:10;;;;;;;11.27;6.32;;;;;;;8.57;72.10;97679.38;4988711;28;20041;-51
2022/04/24 02:11:35;;;;;;;9.45;6.65;;;;;;;8.58;68.65;97675.63;4991957;28;20456;-52
2022/04/24 02:14:00;;;;;;;11.85;6.88;;;;;;;8.58;68.68;97675.63;4987416;28;20786;-50
2022/04/24 02:16:26;;;;;;;10.70;6.28;;;;;;;8.63;68.55;97673.75;4988967;28;20326;-53
2022/04/24 02:18:51;;;;;;;9.63;5.90;;;;;;;8.70;67.28;97672.72;4990453;28;20479;-53
2022/04/24 02:21:17;;;;;;;10.38;6.63;;;;;;;8.85;66.56;97670.03;4994202;28;20050;-52
2022/04/24 02:23:42;;;;;;;10.48;5.72;;;;;;;8.89;67.35;97676.44;4992772;28;20480;-51
2022/04/24 02:26:08;;;;;;;11.07;6.93;;;;;;;8.84;67.71;97673.78;4994879;28;20058;-51
2022/04/24 02:28:33;;;;;;;11.73;8.00;;;;;;;8.74;68.99;97679.91;4993063;28;20030;-52
2022/04/24 02:30:59;;;;;;;11.60;7.47;;;;;;;8.65;68.75;97678.84;4970946;28;20058;-52
2022/04/24 02:33:24;;;;;;;10.38;7.32;;;;;;;8.63;68.99;97673.75;4992081;28;20041;-53
2022/04/24 02:35:49;;;;;;;12.65;6.35;;;;;;;8.63;69.09;97670.28;4998222;28;20038;-54
2022/04/24 02:38:15;;;;;;;9.88;7.00;;;;;;;8.64;68.12;97669.25;4995107;28;20026;-51
2022/04/24 02:40:40;;;;;;;10.85;7.32;;;;;;;8.68;68.27;97664.94;4987009;28;20053;-53
2022/04/24 02:43:06;;;;;;;9.85;6.30;;;;;;;8.66;68.68;97656.41;4991318;28;20451;-51
2022/04/24 02:45:31;;;;;;;11.98;6.65;;;;;;;8.62;69.80;97664.16;4989528;28;20054;-50
2022/04/24 02:47:57;;;;;;;11.32;6.85;;;;;;;8.48;70.08;97659.63;4994014;28;20424;-51
2022/04/24 02:50:23;;;;;;;9.43;6.78;;;;;;;8.48;69.95;97660.41;4994769;28;20046;-54
2022/04/24 02:52:53;;;;;;;8.75;6.47;;;;;;;8.67;68.86;97665.25;4991659;28;20416;-50
2022/04/24 02:55:18;;;;;;;26.67;7.53;;;;;;;8.63;68.77;97659.63;4994672;28;20034;-49
2022/04/24 02:57:44;;;;;;;12.35;6.80;;;;;;;8.71;69.16;97664.44;4990129;28;20022;-52
2022/04/24 03:00:10;;;;;;;10.77;6.97;;;;;;;8.63;68.83;97656.94;4992195;28;20038;-53
2022/04/24 03:02:42;;;;;;;13.32;6.90;;;;;;;8.60;68.52;97658.28;4992095;28;20120;-53
2022/04/24 03:05:12;;;;;;;11.68;7.28;;;;;;;8.71;67.99;97669.78;4989232;28;20033;-52
2022/04/24 03:07:37;;;;;;;11.80;7.10;;;;;;;8.76;67.59;97666.28;4996882;28;21116;-52
2022/04/24 03:10:03;;;;;;;10.68;6.47;;;;;;;8.91;65.93;97668.13;4989363;28;20041;-50
2022/04/24 03:12:31;;;;;;;10.55;7.03;;;;;;;8.91;65.66;97673.47;4989006;28;20037;-51
2022/04/24 03:14:56;;;;;;;10.68;6.55;;;;;;;8.97;65.54;97675.09;4984204;28;20035;-52
2022/04/24 03:17:22;;;;;;;10.68;6.50;;;;;;;8.95;65.37;97671.88;4998303;28;20060;-52
2022/04/24 03:19:48;;;;;;;10.57;6.60;;;;;;;8.96;65.42;97670.78;4996924;28;20027;-52
2022/04/24 03:22:13;;;;;;;11.07;6.28;;;;;;;8.93;65.63;97671.34;4991994;28;20038;-54
2022/04/24 03:24:39;;;;;;;9.77;6.55;;;;;;;8.92;65.88;97669.75;4995263;28;20496;-52
2022/04/24 03:27:04;;;;;;;11.45;6.72;;;;;;;8.91;65.96;97657.44;4994361;28;20128;-51
2022/04/24 03:29:30;;;;;;;10.93;6.30;;;;;;;8.92;65.82;97667.09;4996182;28;20046;-55
2022/04/24 03:31:55;;;;;;;9.82;6.25;;;;;;;8.94;65.28;97665.75;4988562;28;20050;-51
2022/04/24 03:34:21;;;;;;;9.88;6.55;;;;;;;8.96;64.85;97660.09;4991255;28;20030;-50
2022/04/24 03:36:46;;;;;;;12.18;6.82;;;;;;;9.01;64.50;97665.44;4995356;28;20042;-51
2022/04/24 03:39:12;;;;;;;10.63;7.20;;;;;;;8.97;64.98;97661.72;4990430;28;20038;-50
2022/04/24 03:41:37;;;;;;;9.13;6.70;;;;;;;8.94;64.77;97662.28;4989600;28;20493;-52
2022/04/24 03:44:04;;;;;;;10.18;6.90;;;;;;;8.94;65.09;97656.94;4994549;28;20034;-53
2022/04/24 03:46:30;;;;;;;9.50;6.50;;;;;;;8.96;65.06;97660.94;4995485;28;20046;-53
2022/04/24 03:48:55;;;;;;;11.52;6.47;;;;;;;8.98;63.90;97663.31;4999828;28;20038;-51
2022/04/24 03:51:21;;;;;;;9.68;7.00;;;;;;;9.01;65.91;97671.59;4995157;28;20336;-53
2022/04/24 03:53:46;;;;;;;12.60;7.28;;;;;;;9.02;64.99;97667.06;4993250;28;20400;-52
2022/04/24 03:56:12;;;;;;;10.20;6.68;;;;;;;8.99;64.16;97664.94;4996188;28;20057;-53
2022/04/24 03:58:37;;;;;;;10.70;6.90;;;;;;;9.04;63.84;97659.59;4992041;28;20057;-53
2022/04/24 04:01:03;;;;;;;14.50;7.25;;;;;;;9.03;63.94;97668.66;4996684;28;20038;-53
2022/04/24 04:03:28;;;;;;;12.85;7.50;;;;;;;9.01;63.64;97668.94;4991705;28;20417;-50
2022/04/24 04:05:53;;;;;;;11.43;6.47;;;;;;;9.01;64.09;97674.28;4990214;28;20046;-49
2022/04/24 04:08:19;;;;;;;11.20;7.00;;;;;;;9.01;63.99;97676.13;4999766;28;20031;-52
2022/04/24 04:10:44;;;;;;;9.60;7.25;;;;;;;8.99;63.72;97676.41;4994192;28;20046;-51
2022/04/24 04:13:10;;;;;;;9.95;6.68;;;;;;;8.97;64.31;97677.75;4996760;28;20053;-52
2022/04/24 04:15:36;;;;;;;10.20;7.03;;;;;;;9.00;63.44;97671.88;4996357;28;20471;-51
2022/04/24 04:18:01;;;;;;;10.35;6.70;;;;;;;9.02;64.03;97675.88;4996487;28;20074;-50
2022/04/24 04:20:27;;;;;;;9.20;6.53;;;;;;;9.03;63.33;97682.00;4995350;28;20137;-53
2022/04/24 04:22:52;;;;;;;11.25;6.88;;;;;;;9.02;63.84;97675.88;4992980;28;20034;-51
2022/04/24 04:25:24;;;;;;;9.65;6.78;;;;;;;9.02;63.73;97685.78;4988961;28;20030;-51
2022/04/24 04:27:49;;;;;;;9.65;6.57;;;;;;;9.00;64.47;97685.22;4990013;28;20026;-54
2022/04/24 04:30:15;;;;;;;9.90;7.03;;;;;;;8.98;64.46;97685.50;4992726;28;20388;-51
2022/04/24 04:32:40;;;;;;;12.10;7.57;;;;;;;8.98;64.93;97690.03;4989506;28;20034;-51
2022/04/24 04:35:09;;;;;;;11.45;7.28;;;;;;;8.96;66.30;97684.97;4987727;28;20112;-52
2022/04/24 04:37:35;;;;;;;14.63;8.30;;;;;;;9.02;65.37;97688.44;4992883;28;20084;-53
2022/04/24 04:40:01;;;;;;;14.63;7.60;;;;;;;8.97;65.62;97693.78;4995540;28;20030;-50
2022/04/24 04:42:26;;;;;;;10.85;7.20;;;;;;;8.95;66.61;97695.94;4980323;28;20447;-53
2022/04/24 04:44:51;;;;;;;11.32;7.03;;;;;;;8.99;65.46;97697.00;4989192;28;20034;-54
2022/04/24 04:47:17;;;;;;;11.93;7.05;;;;;;;9.01;66.71;97706.34;4991861;28;20045;-53
2022/04/24 04:49:42;;;;;;;11.52;7.78;;;;;;;9.01;68.54;97710.88;4990892;28;20480;-53
2022/04/24 04:52:08;;;;;;;11.07;8.23;;;;;;;8.97;72.75;97709.81;4989871;28;20385;-52
2022/04/24 04:54:34;;;;;;;13.50;8.63;;;;;;;8.87;75.90;97717.84;4995664;28;20334;-51
2022/04/24 04:56:59;;;;;;;16.13;8.20;;;;;;;8.79;75.16;97717.31;4987710;28;20041;-51
2022/04/24 04:59:25;;;;;;;14.75;8.48;;;;;;;8.79;73.84;97714.66;5002529;28;20034;-52
2022/04/24 05:01:50;;;;;;;12.75;8.45;;;;;;;8.74;75.38;97717.31;4992381;28;20386;-53
2022/04/24 05:04:15;;;;;;;11.55;7.90;;;;;;;8.61;75.95;97724.00;4990310;28;20588;-52
2022/04/24 05:06:41;;;;;;;13.82;8.57;;;;;;;8.61;76.01;97728.50;4987000;28;20062;-53
2022/04/24 05:09:07;;;;;;;11.85;8.10;;;;;;;8.63;75.01;97727.19;4986677;28;20041;-50
2022/04/24 05:11:33;;;;;;;13.98;8.68;;;;;;;8.63;73.01;97729.06;4988032;28;20042;-52
2022/04/24 05:13:58;;;;;;;10.85;7.65;;;;;;;8.61;76.07;97731.19;4994104;28;20083;-53
2022/04/24 05:16:23;;;;;;;12.30;8.35;;;;;;;8.53;76.18;97734.38;4997782;28;20042;-50
2022/04/24 05:18:49;;;;;;;11.90;8.63;;;;;;;8.61;78.02;97739.19;4995332;28;20096;-52
2022/04/24 05:21:17;;;;;;;13.27;8.43;;;;;;;8.60;75.13;97738.41;4994922;28;20100;-53
2022/04/24 05:23:45;;;;;;;14.35;8.85;;;;;;;8.66;74.56;97743.75;4994084;28;20049;-54
2022/04/24 05:26:11;;;;;;;12.32;8.75;;;;;;;8.70;74.82;97747.50;4991429;28;20042;-51
2022/04/24 05:28:37;;;;;;;11.00;8.18;;;;;;;8.63;75.38;97742.41;4992378;28;20034;-54
2022/04/24 05:31:02;;;;;;;11.57;8.10;;;;;;;8.69;75.27;97746.69;4994619;28;20053;-52
2022/04/24 05:33:28;;;;;;;16.45;8.75;;;;;;;8.77;74.12;97748.84;4999524;28;20045;-54
2022/04/24 05:35:54;;;;;;;12.55;8.85;;;;;;;8.88;74.38;97748.84;4992474;28;20038;-53
2022/04/24 05:38:19;;;;;;;12.95;8.85;;;;;;;9.11;75.19;97748.31;4992654;28;20033;-52
2022/04/24 05:40:44;;;;;;;14.45;8.60;;;;;;;9.19;75.40;97750.44;4989420;28;20500;-54
2022/04/24 05:43:10;;;;;;;13.60;9.07;;;;;;;9.21;75.48;97758.97;4992315;28;20042;-51
2022/04/24 05:45:36;;;;;;;12.90;9.32;;;;;;;9.17;74.98;97768.59;4991174;28;20053;-53
2022/04/24 05:48:02;;;;;;;14.90;8.90;;;;;;;9.31;75.06;97763.53;4995706;28;20042;-54
2022/04/24 05:50:27;;;;;;;12.63;8.98;;;;;;;9.43;74.39;97765.88;4999175;28;20612;-54
2022/04/24 05:52:54;;;;;;;12.90;8.88;;;;;;;9.70;73.88;97765.56;4994881;28;20042;-54
2022/04/24 05:55:19;;;;;;;11.65;8.85;;;;;;;9.99;72.36;97760.38;4992225;28;20036;-54
2022/04/24 05:57:45;;;;;;;11.38;8.55;;;;;;;10.39;71.12;97763.97;4988260;28;20116;-51
2022/04/24 06:00:12;;;;;;;14.18;9.60;;;;;;;10.78;72.46;97768.53;4997253;28;20468;-53
2022/04/24 06:02:39;;;;;;;17.02;10.35;;;;;;;11.18;73.57;97772.78;4998011;28;20026;-50
2022/04/24 06:05:05;;;;;;;15.40;9.23;;;;;;;11.53;73.31;97768.16;4986135;28;20104;-50
2022/04/24 06:07:31;;;;;;;15.30;9.52;;;;;;;11.60;72.88;97762.44;4992405;28;20023;-48
2022/04/24 06:09:56;;;;;;;14.38;9.88;;;;;;;11.73;73.00;97766.31;4993790;28;20031;-53
2022/04/24 06:12:22;;;;;;;15.32;9.15;;;;;;;12.92;67.60;97770.69;4991486;28;20038;-52
2022/04/24 06:14:47;;;;;;;11.18;8.63;;;;;;;13.80;62.32;97778.06;4997050;28;20034;-52
2022/04/24 06:17:12;;;;;;;12.25;8.23;;;;;;;14.02;56.36;97772.00;4987411;28;20050;-50
2022/04/24 06:19:38;;;;;;;10.43;7.93;;;;;;;14.31;54.53;97771.66;4987033;28;20080;-49
2022/04/24 06:22:04;;;;;;;10.77;7.53;;;;;;;14.16;53.41;97778.19;4987464;28;20749;-50
2022/04/24 06:24:29;;;;;;;11.70;8.07;;;;;;;15.28;50.17;97777.56;4991671;28;20451;-54
2022/04/24 06:26:55;;;;;;;9.65;7.47;;;;;;;16.26;48.41;97772.25;4993473;28;20050;-54
2022/04/24 06:29:20;;;;;;;9.85;7.55;;;;;;;16.61;48.22;97771.19;4998002;28;20029;-53
2022/04/24 06:31:45;;;;;;;13.05;8.15;;;;;;;17.02;47.24;97761.03;4990486;28;20046;-54
2022/04/24 06:34:11;;;;;;;12.50;8.57;;;;;;;16.21;47.73;97764.31;4989023;28;20038;-53
2022/04/24 06:36:36;;;;;;;11.57;7.68;;;;;;;17.59;46.03;97768.06;4992695;28;20477;-52
2022/04/24 06:39:02;;;;;;;10.23;7.72;;;;;;;18.70;42.67;97767.03;4996294;28;20034;-50
2022/04/24 06:41:27;;;;;;;11.57;8.32;;;;;;;16.64;48.38;97756.22;4990848;28;20407;-52
2022/04/24 06:43:53;;;;;;;9.35;7.47;;;;;;;18.50;44.71;97763.97;4986914;28;20041;-50
2022/04/24 06:46:19;;;;;;;9.70;7.43;;;;;;;18.50;43.94;97766.69;4997465;28;20042;-50
2022/04/24 06:48:44;;;;;;;9.98;7.63;;;;;;;19.70;40.90;97764.38;4990448;28;20076;-50
2022/04/24 06:51:10;;;;;;;10.70;7.45;;;;;;;20.56;36.42;97751.53;4989780;28;20062;-52
2022/04/24 06:53:38;;;;;;;11.73;7.65;;;;;;;18.80;40.41;97760.44;4994801;28;20433;-52
2022/04/24 06:56:03;;;;;;;10.07;7.82;;;;;;;14.92;47.06;97749.84;5000862;28;20410;-48
2022/04/24 06:58:29;;;;;;;13.00;7.72;;;;;;;13.82;51.06;97757.03;4997001;28;20034;-54
2022/04/24 07:00:55;;;;;;;14.82;7.75;;;;;;;14.51;50.86;97754.25;4991928;28;20543;-51
2022/04/24 07:03:21;;;;;;;11.43;7.57;;;;;;;15.38;49.24;97751.41;4994454;28;20093;-52
2022/04/24 07:05:47;;;;;;;9.77;7.20;;;;;;;16.67;46.44;97749.41;4991766;28;20462;-50
2022/04/24 07:08:12;;;;;;;9.20;7.53;;;;;;;15.97;47.64;97746.56;5000773;28;20057;-51
2022/04/24 07:10:38;;;;;;;9.68;7.25;;;;;;;15.19;48.09;97744.31;4994236;28;20198;-52
2022/04/24 07:13:03;;;;;;;12.90;7.75;;;;;;;14.65;50.06;97754.22;4993695;28;20609;-50
2022/04/24 07:15:30;;;;;;;10.85;8.60;;;;;;;14.01;51.87;97741.56;4987131;28;20074;-52
2022/04/24 07:17:56;;;;;;;11.90;7.97;;;;;;;13.73;52.99;97746.19;4992549;28;20034;-51
2022/04/24 07:20:21;;;;;;;10.18;7.63;;;;;;;13.66;52.76;97750.38;4995268;28;20069;-54
2022/04/24 07:22:54;;;;;;;13.27;8.13;;;;;;;13.13;52.81;97752.34;4996886;28;20783;-49
2022/04/24 07:25:22;;;;;;;12.60;8.80;;;;;;;13.41;52.59;97755.13;4994920;28;20034;-53
2022/04/24 07:27:48;;;;;;;16.45;9.20;;;;;;;12.74;53.24;97748.09;4994499;28;20026;-50
2022/04/24 07:30:14;;;;;;;14.95;8.73;;;;;;;12.99;54.07;97746.09;4990819;28;20041;-53
2022/04/24 07:32:40;;;;;;;13.60;8.25;;;;;;;13.27;53.01;97748.91;4988726;28;20041;-52
2022/04/24 07:35:08;;;;;;;12.20;8.70;;;;;;;12.73;53.74;97743.84;4990016;28;20030;-50
2022/04/24 07:37:34;;;;;;;11.73;8.82;;;;;;;12.90;53.60;97734.41;4988827;28;20476;-53
2022/04/24 07:39:59;;;;;;;12.20;8.65;;;;;;;13.28;53.98;97745.09;4990321;28;20041;-53
2022/04/24 07:42:24;;;;;;;14.38;9.05;;;;;;;13.15;52.29;97744.78;4995385;28;20107;-52
2022/04/24 07:44:51;;;;;;;12.75;8.57;;;;;;;13.01;53.69;97743.94;5001563;28;20022;-50
2022/04/24 07:47:16;;;;;;;11.23;8.73;;;;;;;13.10;54.58;97750.25;4999883;28;20092;-50
2022/04/24 07:49:42;;;;;;;14.07;8.60;;;;;;;13.34;51.91;97749.31;4994553;28;20038;-51
2022/04/24 07:52:07;;;;;;;12.88;7.93;;;;;;;14.22;51.00;97755.41;4996333;28;20046;-53
2022/04/24 07:54:32;;;;;;;14.30;8.85;;;;;;;14.51;50.29;97761.56;4999477;28;20153;-52
2022/04/24 07:56:58;;;;;;;17.98;9.70;;;;;;;15.01;48.01;97756.09;4993478;28;20505;-52
2022/04/24 07:59:23;;;;;;;13.85;9.32;;;;;;;14.36;50.03;97755.38;4993620;28;20034;-53
2022/04/24 08:01:51;;;;;;;12.73;9.30;;;;;;;13.91;50.26;97751.75;4995711;28;20030;-54
2022/04/24 08:04:17;;;;;;;11.77;8.82;;;;;;;13.91;50.61;97746.38;4998099;28;20203;-50
2022/04/24 08:06:42;;;;;;;15.82;9.20;;;;;;;14.30;49.97;97753.88;5004232;28;20069;-51
2022/04/24 08:09:08;;;;;;;14.48;9.70;;;;;;;14.52;48.99;97749.66;4994371;28;20037;-54
2022/04/24 08:11:33;;;;;;;13.60;9.77;;;;;;;14.62;49.10;97758.34;4990597;28;20042;-53
2022/04/24 08:14:00;;;;;;;11.52;9.07;;;;;;;14.35;48.73;97756.50;4997396;28;20030;-53
2022/04/24 08:16:26;;;;;;;13.15;9.27;;;;;;;14.02;49.40;97761.22;4994643;28;20050;-53
2022/04/24 08:18:52;;;;;;;12.80;9.35;;;;;;;14.38;48.66;97766.66;4998875;28;20030;-53
2022/04/24 08:21:18;;;;;;;14.32;9.80;;;;;;;14.72;47.81;97765.41;4994726;28;20507;-52
2022/04/24 08:23:43;;;;;;;13.30;9.48;;;;;;;13.87;49.70;97756.94;5001122;28;20049;-52
2022/04/24 08:26:10;;;;;;;15.02;9.80;;;;;;;14.46;48.18;97771.34;5000939;28;20049;-52
2022/04/24 08:28:36;;;;;;;14.35;9.77;;;;;;;14.33;47.93;97763.28;4998805;28;20380;-52
2022/04/24 08:31:01;;;;;;;12.82;10.40;;;;;;;14.60;47.18;97757.88;4999549;28;20058;-53
2022/04/24 08:33:26;;;;;;;13.40;10.32;;;;;;;14.79;47.25;97770.38;4993900;28;20042;-52
2022/04/24 08:35:52;;;;;;;16.33;10.43;;;;;;;15.06;46.82;97762.16;4996894;28;20034;-53
2022/04/24 08:38:18;;;;;;;17.05;10.52;;;;;;;14.82;47.64;97759.75;4993943;28;20040;-50
2022/04/24 08:40:44;;;;;;;15.35;10.57;;;;;;;14.48;47.84;97767.53;5000299;28;20038;-53
2022/04/24 08:43:09;;;;;;;13.82;10.10;;;;;;;15.12;47.58;97762.03;4994498;28;20393;-53
2022/04/24 08:45:35;;;;;;;15.50;10.63;;;;;;;15.18;46.42;97763.53;5003222;28;20045;-51
2022/04/24 08:48:02;;;;;;;15.02;10.18;;;;;;;15.15;46.96;97767.63;5002530;28;20037;-52
2022/04/24 08:50:31;;;;;;;11.90;9.63;;;;;;;14.50;48.35;97768.81;4996148;28;20049;-53
2022/04/24 08:52:59;;;;;;;12.48;9.50;;;;;;;14.97;48.51;97755.13;4993194;28;20117;-52
2022/04/24 08:55:26;;;;;;;13.02;10.25;;;;;;;15.95;46.56;97762.34;4992649;28;20081;-51
2022/04/24 08:57:52;;;;;;;16.65;10.90;;;;;;;15.14;46.57;97763.31;4994513;28;20041;-52
2022/04/24 09:00:17;;;;;;;14.95;9.98;;;;;;;15.62;46.06;97759.94;4995276;28;20025;-51
2022/04/24 09:02:43;;;;;;;13.70;10.20;;;;;;;15.37;46.21;97764.09;4998388;28;20037;-53
2022/04/24 09:05:08;;;;;;;13.23;10.18;;;;;;;16.02;45.65;97761.84;5002315;28;20038;-53
2022/04/24 09:07:34;;;;;;;13.35;8.90;;;;;;;16.54;44.34;97776.28;4997876;28;20174;-52
2022/04/24 09:10:07;;;;;;;12.32;8.77;;;;;;;15.77;46.26;97766.06;4996943;28;20145;-53
2022/04/24 09:12:33;;;;;;;16.05;9.20;;;;;;;15.36;45.73;97767.91;4997017;28;20058;-51
2022/04/24 09:14:59;;;;;;;14.73;10.18;;;;;;;16.07;45.20;97759.78;4997701;28;20034;-51
2022/04/24 09:17:26;;;;;;;13.70;9.50;;;;;;;17.70;42.63;97761.19;4999576;28;20060;-53
2022/04/24 09:19:52;;;;;;;11.40;9.30;;;;;;;16.72;43.65;97765.47;4995725;28;20531;-53
2022/04/24 09:22:18;;;;;;;15.90;10.98;;;;;;;16.51;43.69;97768.78;4992670;28;20456;-52
2022/04/24 09:24:49;;;;;;;14.13;9.95;;;;;;;16.63;43.42;97767.38;4987233;28;20030;-53
2022/04/24 09:27:25;;;;;;;14.18;10.20;;;;;;;16.89;43.33;97757.38;4990524;28;20469;-53
2022/04/24 09:30:01;;;;;;;15.35;10.05;;;;;;;17.21;43.08;97752.56;4977084;28;20120;-51
2022/04/24 09:32:28;;;;;;;13.23;10.05;;;;;;;17.14;43.10;97763.88;4985629;28;20104;-51
2022/04/24 09:34:53;;;;;;;14.15;9.82;;;;;;;16.36;44.31;97755.75;4990600;28;20026;-52
2022/04/24 09:37:19;;;;;;;12.82;10.27;;;;;;;16.13;44.82;97760.47;4996086;28;20035;-49
2022/04/24 09:39:44;;;;;;;15.48;10.68;;;;;;;17.16;43.54;97766.28;4992396;28;20468;-52
2022/04/24 09:42:11;;;;;;;15.18;11.10;;;;;;;15.93;45.90;97764.53;4991584;28;20426;-52
2022/04/24 09:44:47;;;;;;;16.42;9.65;;;;;;;16.12;45.19;97778.56;4996146;28;20038;-53
2022/04/24 09:47:13;;;;;;;13.75;9.55;;;;;;;16.57;44.82;97769.44;4991736;28;20046;-54
2022/04/24 09:49:40;;;;;;;14.25;10.98;;;;;;;16.07;44.76;97776.00;4993650;28;20034;-53
2022/04/24 09:52:10;;;;;;;13.52;10.27;;;;;;;16.49;45.30;97776.44;4999402;28;20518;-52
2022/04/24 09:54:43;;;;;;;15.77;9.55;;;;;;;15.97;45.95;97773.59;4992519;28;20113;-51
2022/04/24 09:57:09;;;;;;;12.90;9.63;;;;;;;15.63;46.51;97783.13;4985770;28;20053;-52
2022/04/24 09:59:39;;;;;;;12.93;9.70;;;;;;;16.32;45.82;97777.19;4992442;28;20037;-52
2022/04/24 10:02:05;;;;;;;14.65;9.55;;;;;;;16.12;45.67;97772.38;4989169;28;20045;-52
2022/04/24 10:04:35;;;;;;;15.38;9.52;;;;;;;16.16;46.05;97776.84;4990748;28;20034;-53
2022/04/24 10:07:01;;;;;;;;;;;;;;;16.36;45.90;97782.78;4991601;28;20828;-52
2022/04/24 10:09:26;;;;;;;14.88;10.18;;;;;;;16.56;44.99;97781.38;4987877;28;19925;-53
2022/04/24 10:11:52;;;;;;;14.05;10.27;;;;;;;16.28;45.49;97780.84;4995669;28;20046;-51
2022/04/24 10:14:17;;;;;;;14.13;10.15;;;;;;;16.02;45.92;97783.47;4995717;28;20038;-51
2022/04/24 10:16:52;;;;;;;13.75;10.25;;;;;;;16.44;45.48;97783.91;4972267;28;20053;-52
2022/04/24 10:19:46;;;;;;;13.38;9.55;;;;;;;15.98;45.79;97799.53;4986495;28;20034;-52
2022/04/24 10:22:33;;;;;;;13.73;9.05;;;;;;;15.92;46.32;97787.25;4996870;28;20476;-51
2022/04/24 10:25:00;;;;;;;15.50;9.05;;;;;;;16.25;45.47;97794.97;4988645;28;20046;-52
2022/04/24 10:27:38;;;;;;;12.25;8.65;;;;;;;16.73;45.80;97780.59;4990093;28;20401;-51
2022/04/24 10:30:05;;;;;;;12.60;8.77;;;;;;;17.04;44.09;97783.16;4999437;28;20026;-53
2022/04/24 10:32:30;;;;;;;14.43;8.98;;;;;;;16.65;44.62;97789.47;5001807;28;20297;-50
2022/04/24 10:34:56;;;;;;;16.77;9.27;;;;;;;15.89;45.80;97785.19;5008396;28;20258;-51
2022/04/24 10:37:30;;;;;;;12.25;9.00;;;;;;;16.03;45.90;97791.28;5005012;28;20049;-50
2022/04/24 10:39:57;;;;;;;14.07;9.48;;;;;;;15.67;47.23;97796.81;5000920;28;20058;-51
2022/04/24 10:42:32;;;;;;;12.30;9.10;;;;;;;15.66;48.50;97797.94;4988202;28;20462;-52
2022/04/24 10:45:06;;;;;;;14.85;9.30;;;;;;;15.29;48.08;97789.13;5000574;28;20034;-52
2022/04/24 10:47:52;;;;;;;13.25;9.45;;;;;;;15.38;47.98;97791.91;4999643;28;20065;-50
2022/04/24 10:50:18;;;;;;;12.32;9.35;;;;;;;15.76;47.73;97791.50;4998815;28;20550;-51
2022/04/24 10:52:44;;;;;;;15.85;8.38;;;;;;;15.61;47.12;97796.16;5002063;28;20038;-54
2022/04/24 10:55:12;;;;;;;20.13;9.32;;;;;;;15.71;47.83;97795.13;4986896;28;20034;-52
2022/04/24 10:57:45;;;;;;;16.73;8.65;;;;;;;15.72;48.01;97802.94;4991645;28;20026;-53
2022/04/24 11:00:19;;;;;;;20.75;8.75;;;;;;;16.10;47.42;97796.22;4992967;28;20065;-54
2022/04/24 11:02:45;;;;;;;15.65;9.55;;;;;;;15.84;47.00;97799.63;4997403;28;20036;-55
2022/04/24 11:05:10;;;;;;;14.05;9.10;;;;;;;16.06;46.69;97795.25;4999809;28;20112;-52
2022/04/24 11:07:36;;;;;;;14.27;9.32;;;;;;;16.13;47.31;97801.81;4994356;28;20026;-52
2022/04/24 11:10:09;;;;;;;12.70;8.90;;;;;;;16.39;47.00;97799.16;4997919;28;20408;-52
2022/04/24 11:12:35;;;;;;;12.60;8.95;;;;;;;16.23;46.60;97789.13;4998487;28;20038;-51
2022/04/24 11:15:04;;;;;;;12.27;8.98;;;;;;;15.72;47.69;97796.69;4988751;28;20080;-53
2022/04/24 11:17:29;;;;;;;12.63;9.27;;;;;;;15.67;47.15;97799.50;5004052;28;20161;-51
2022/04/24 11:19:59;;;;;;;11.05;8.50;;;;;;;15.89;47.31;97796.00;4998925;28;20451;-50
2022/04/24 11:22:24;;;;;;;13.60;8.38;;;;;;;15.68;47.59;97804.63;4999981;28;20047;-51
2022/04/24 11:24:53;;;;;;;12.40;8.68;;;;;;;15.92;47.61;97800.75;5001362;28;20108;-51
2022/04/24 11:27:18;;;;;;;12.68;9.32;;;;;;;16.36;47.45;97802.50;4991025;28;20049;-50
2022/04/24 11:29:44;;;;;;;15.57;8.65;;;;;;;15.63;45.96;97810.16;4986456;28;20391;-53